createdAt,value
2019-04-10T00:01:02.050Z,99.90
2019-04-10T00:03:34.433Z,99.90
2019-04-10T00:06:00.930Z,99.90
2019-04-10T00:08:30.359Z,99.90
2019-04-10T00:10:59.087Z,99.90
2019-04-10T00:13:28.843Z,99.90
2019-04-10T00:15:57.518Z,99.90
2019-04-10T00:18:26.324Z,99.90
2019-04-10T00:20:55.014Z,99.90
2019-04-10T00:23:23.602Z,99.90
2019-04-10T00:25:53.035Z,99.90
2019-04-10T00:28:21.658Z,99.90
2019-04-10T00:30:51.343Z,99.90
2019-04-10T00:33:20.793Z,99.90
2019-04-10T00:35:49.895Z,99.90
2019-04-10T00:38:19.753Z,99.90
2019-04-10T00:40:48.436Z,99.90
2019-04-10T00:43:17.114Z,99.90
2019-04-10T00:45:46.009Z,99.90
2019-04-10T00:48:15.505Z,99.90
2019-04-10T00:50:44.618Z,99.90
2019-04-10T00:53:13.428Z,99.90
2019-04-10T00:55:42.036Z,99.90
2019-04-10T00:58:10.614Z,99.90
2019-04-10T01:00:39.316Z,99.90
2019-04-10T01:03:07.915Z,99.90
2019-04-10T01:05:37.523Z,99.90
2019-04-10T01:08:06.584Z,99.90
2019-04-10T01:10:35.341Z,99.90
2019-04-10T01:13:04.899Z,99.90
2019-04-10T01:15:34.461Z,99.90
2019-04-10T01:18:03.148Z,99.90
2019-04-10T01:20:31.722Z,99.90
2019-04-10T01:23:00.511Z,99.90
2019-04-10T01:25:29.134Z,99.90
2019-04-10T01:27:58.442Z,99.90
2019-04-10T01:30:27.153Z,99.90
2019-04-10T01:32:56.486Z,99.90
2019-04-10T01:35:25.160Z,99.90
2019-04-10T01:37:59.173Z,99.90
2019-04-10T01:40:23.987Z,99.90
2019-04-10T01:43:02.369Z,99.90
2019-04-10T01:45:22.822Z,99.90
2019-04-10T01:47:51.434Z,99.90
2019-04-10T01:50:20.170Z,99.90
2019-04-10T01:52:49.145Z,99.90
2019-04-10T01:55:25.334Z,99.90
2019-04-10T01:57:48.532Z,99.90
2019-04-10T02:00:21.871Z,99.90
2019-04-10T02:02:53.973Z,99.90
2019-04-10T02:05:22.859Z,99.90
2019-04-10T02:08:01.108Z,99.90
2019-04-10T02:10:21.969Z,99.90
2019-04-10T02:12:50.838Z,99.90
2019-04-10T02:15:19.771Z,99.90
2019-04-10T02:17:48.721Z,99.90
2019-04-10T02:20:18.854Z,99.90
2019-04-10T02:22:48.012Z,99.90
2019-04-10T02:25:17.850Z,99.90
2019-04-10T02:27:46.780Z,99.90
2019-04-10T02:30:17.476Z,99.90
2019-04-10T02:32:48.076Z,99.90
2019-04-10T02:35:18.884Z,99.90
2019-04-10T02:37:51.119Z,99.90
2019-04-10T02:40:17.249Z,99.90
2019-04-10T02:42:47.371Z,99.90
2019-04-10T02:45:17.128Z,99.90
2019-04-10T02:47:47.481Z,99.90
2019-04-10T02:50:16.681Z,99.90
2019-04-10T02:52:45.908Z,99.90
2019-04-10T02:55:16.816Z,99.90
2019-04-10T02:57:46.049Z,99.90
2019-04-10T03:00:15.514Z,99.90
2019-04-10T03:02:45.317Z,99.90
2019-04-10T03:05:15.843Z,99.90
2019-04-10T03:07:44.490Z,99.90
2019-04-10T03:10:24.501Z,99.90
2019-04-10T03:12:44.393Z,99.90
2019-04-10T03:15:15.066Z,99.90
2019-04-10T03:17:44.108Z,99.90
2019-04-10T03:20:14.059Z,99.90
2019-04-10T03:22:43.059Z,99.90
2019-04-10T03:25:12.791Z,99.90
2019-04-10T03:27:41.439Z,99.90
2019-04-10T03:30:12.672Z,99.90
2019-04-10T03:32:47.987Z,99.90
2019-04-10T03:35:23.417Z,99.90
2019-04-10T03:37:52.897Z,99.90
2019-04-10T03:40:21.726Z,99.90
2019-04-10T03:42:50.285Z,99.90
2019-04-10T03:45:18.877Z,99.90
2019-04-10T03:47:47.533Z,99.90
2019-04-10T03:50:16.461Z,99.90
2019-04-10T03:52:45.373Z,99.90
2019-04-10T03:55:15.406Z,99.90
2019-04-10T03:57:44.848Z,99.90
2019-04-10T04:00:14.190Z,99.90
2019-04-10T04:02:42.799Z,99.90
2019-04-10T04:05:11.469Z,99.90
2019-04-10T04:07:40.988Z,99.90
2019-04-10T04:10:10.859Z,99.90
2019-04-10T04:12:39.575Z,99.90
2019-04-10T04:15:09.401Z,99.90
2019-04-10T04:17:38.192Z,99.90
2019-04-10T04:20:06.897Z,99.90
2019-04-10T04:22:35.498Z,99.90
2019-04-10T04:25:04.922Z,99.90
2019-04-10T04:27:33.599Z,99.90
2019-04-10T04:30:02.199Z,99.90
2019-04-10T04:32:31.494Z,99.90
2019-04-10T04:35:00.165Z,99.90
2019-04-10T04:37:28.689Z,99.90
2019-04-10T04:39:58.293Z,99.90
2019-04-10T04:42:26.968Z,99.90
2019-04-10T04:44:56.273Z,99.90
2019-04-10T04:47:24.937Z,99.90
2019-04-10T04:49:54.391Z,99.90
2019-04-10T04:52:23.917Z,99.90
2019-04-10T04:54:53.273Z,99.90
2019-04-10T04:57:22.654Z,99.90
2019-04-10T04:59:51.389Z,99.90
2019-04-10T05:02:19.961Z,99.90
2019-04-10T05:04:49.390Z,99.90
2019-04-10T05:07:18.007Z,99.90
2019-04-10T05:09:46.682Z,99.90
2019-04-10T05:12:16.403Z,99.90
2019-04-10T05:14:46.184Z,99.90
2019-04-10T05:17:16.614Z,99.90
2019-04-10T05:19:45.073Z,99.90
2019-04-10T05:22:14.394Z,99.90
2019-04-10T05:24:42.983Z,99.90
2019-04-10T05:27:11.876Z,99.90
2019-04-10T05:29:41.048Z,99.90
2019-04-10T05:32:09.609Z,99.90
2019-04-10T05:34:38.366Z,99.90
2019-04-10T05:37:07.321Z,99.90
2019-04-10T05:39:43.145Z,99.90
2019-04-10T05:42:06.441Z,99.90
2019-04-10T05:44:36.028Z,99.90
2019-04-10T05:47:05.384Z,99.90
2019-04-10T05:49:35.100Z,99.90
2019-04-10T05:52:04.188Z,99.90
2019-04-10T05:54:33.336Z,99.90
2019-04-10T05:57:02.006Z,99.90
2019-04-10T05:59:30.894Z,99.90
2019-04-10T06:01:59.502Z,99.90
2019-04-10T06:04:28.081Z,99.90
2019-04-10T06:06:56.901Z,99.90
2019-04-10T06:09:25.606Z,99.90
2019-04-10T06:11:55.344Z,99.90
2019-04-10T06:14:24.192Z,99.90
2019-04-10T06:16:53.158Z,99.90
2019-04-10T06:19:22.059Z,99.90
2019-04-10T06:21:50.786Z,99.90
2019-04-10T06:24:20.353Z,99.90
2019-04-10T06:26:49.988Z,99.90
2019-04-10T06:29:19.194Z,99.90
2019-04-10T06:31:47.926Z,99.90
2019-04-10T06:34:18.619Z,99.90
2019-04-10T06:36:46.674Z,99.90
2019-04-10T06:39:16.317Z,99.90
2019-04-10T06:41:45.013Z,99.90
2019-04-10T06:44:14.050Z,99.90
2019-04-10T06:46:42.721Z,99.90
2019-04-10T06:49:12.259Z,99.90
2019-04-10T06:51:41.074Z,99.90
2019-04-10T06:54:11.441Z,99.90
2019-04-10T06:56:40.969Z,99.90
2019-04-10T06:59:09.793Z,99.90
2019-04-10T07:01:45.390Z,99.90
2019-04-10T07:04:09.773Z,99.90
2019-04-10T07:06:50.333Z,99.90
2019-04-10T07:09:11.773Z,99.90
2019-04-10T07:11:40.418Z,99.90
2019-04-10T07:14:12.564Z,99.90
2019-04-10T07:16:40.216Z,99.90
2019-04-10T07:19:11.649Z,99.90
2019-04-10T07:21:39.257Z,99.90
2019-04-10T07:24:09.768Z,99.90
2019-04-10T07:26:43.043Z,99.90
2019-04-10T07:29:08.958Z,99.90
2019-04-10T07:31:38.270Z,99.90
2019-04-10T07:34:08.822Z,99.90
2019-04-10T07:36:41.639Z,99.90
2019-04-10T07:39:08.007Z,99.90
2019-04-10T07:41:37.643Z,99.90
2019-04-10T07:44:06.478Z,99.90
2019-04-10T07:46:35.053Z,99.90
2019-04-10T07:49:03.642Z,99.90
2019-04-10T07:51:32.221Z,99.90
2019-04-10T07:54:01.847Z,99.90
2019-04-10T07:56:31.190Z,99.90
2019-04-10T07:59:00.529Z,99.90
2019-04-10T08:01:29.291Z,99.90
2019-04-10T08:03:57.885Z,99.90
2019-04-10T08:06:27.705Z,99.90
2019-04-10T08:08:56.434Z,99.90
2019-04-10T08:11:26.033Z,99.90
2019-04-10T08:13:56.042Z,99.90
2019-04-10T08:16:25.386Z,99.90
2019-04-10T08:18:54.218Z,99.90
2019-04-10T08:21:23.868Z,99.90
2019-04-10T08:23:53.040Z,99.90
2019-04-10T08:26:22.718Z,99.90
2019-04-10T08:28:51.768Z,99.90
2019-04-10T08:31:21.253Z,99.90
2019-04-10T08:33:50.805Z,99.90
2019-04-10T08:36:19.498Z,99.90
2019-04-10T08:38:48.936Z,99.90
2019-04-10T08:41:17.570Z,99.90
2019-04-10T08:43:46.103Z,99.90
2019-04-10T08:46:14.800Z,99.90
2019-04-10T08:48:43.476Z,99.90
2019-04-10T08:51:12.077Z,99.90
2019-04-10T08:53:40.748Z,99.90
2019-04-10T08:56:09.394Z,99.90
2019-04-10T08:58:39.074Z,99.90
2019-04-10T09:01:09.076Z,99.90
2019-04-10T09:03:37.749Z,99.90
2019-04-10T09:06:07.194Z,99.90
2019-04-10T09:08:37.041Z,99.90
2019-04-10T09:11:07.015Z,99.90
2019-04-10T09:13:36.747Z,99.90
2019-04-10T09:16:06.575Z,99.90
2019-04-10T09:18:35.459Z,99.90
2019-04-10T09:21:04.925Z,99.90
2019-04-10T09:23:42.935Z,99.90
2019-04-10T09:26:03.922Z,99.90
2019-04-10T09:28:32.787Z,99.90
2019-04-10T09:31:01.788Z,99.90
2019-04-10T09:33:32.022Z,99.90
2019-04-10T09:36:00.834Z,99.90
2019-04-10T09:38:30.527Z,99.90
2019-04-10T09:40:59.425Z,99.90
2019-04-10T09:43:28.085Z,99.90
2019-04-10T09:45:56.908Z,99.90
2019-04-10T09:48:26.416Z,99.90
2019-04-10T09:50:56.079Z,99.90
2019-04-10T09:53:25.185Z,99.90
2019-04-10T09:55:54.542Z,99.90
2019-04-10T09:58:23.999Z,99.90
2019-04-10T10:00:52.641Z,99.90
2019-04-10T10:03:21.329Z,99.90
2019-04-10T10:05:50.996Z,99.90
2019-04-10T10:08:19.715Z,99.90
2019-04-10T10:10:49.165Z,99.90
2019-04-10T10:13:17.797Z,99.90
2019-04-10T10:15:46.377Z,99.90
2019-04-10T10:18:15.080Z,99.90
2019-04-10T10:20:43.948Z,99.90
2019-04-10T10:23:13.687Z,99.90
2019-04-10T10:25:42.297Z,99.90
2019-04-10T10:28:11.755Z,99.90
2019-04-10T10:30:40.409Z,99.90
2019-04-10T10:33:09.849Z,99.90
2019-04-10T10:35:38.978Z,99.90
2019-04-10T10:38:08.289Z,99.90
2019-04-10T10:40:37.113Z,99.90
2019-04-10T10:43:05.767Z,99.90
2019-04-10T10:45:34.738Z,99.90
2019-04-10T10:48:03.418Z,99.90
2019-04-10T10:50:33.089Z,99.90
2019-04-10T10:53:01.931Z,99.90
2019-04-10T10:55:31.746Z,99.90
2019-04-10T10:58:01.693Z,99.90
2019-04-10T11:00:31.346Z,99.90
2019-04-10T11:03:00.235Z,99.90
2019-04-10T11:05:30.796Z,99.90
2019-04-10T11:07:59.885Z,99.90
2019-04-10T11:10:30.048Z,99.90
2019-04-10T11:12:58.742Z,99.90
2019-04-10T11:15:27.866Z,99.90
2019-04-10T11:17:56.554Z,99.90
2019-04-10T11:20:25.675Z,99.90
2019-04-10T11:22:55.743Z,99.90
2019-04-10T11:25:24.408Z,99.90
2019-04-10T11:27:54.329Z,99.90
2019-04-10T11:30:24.749Z,99.90
2019-04-10T11:32:54.810Z,99.90
2019-04-10T11:35:24.295Z,99.90
2019-04-10T11:37:56.169Z,99.90
2019-04-10T11:40:23.627Z,99.90
2019-04-10T11:42:54.199Z,99.90
2019-04-10T11:45:28.329Z,99.90
2019-04-10T11:47:54.260Z,99.90
2019-04-10T11:50:25.308Z,99.90
2019-04-10T11:52:54.112Z,99.90
2019-04-10T11:55:27.030Z,99.90
2019-04-10T11:57:54.589Z,99.90
2019-04-10T12:00:49.255Z,99.90
2019-04-10T12:03:10.616Z,99.90
2019-04-10T12:05:41.308Z,99.90
2019-04-10T12:08:32.272Z,99.90
2019-04-10T12:13:12.334Z,99.90
2019-04-10T12:15:41.089Z,99.90
2019-04-10T12:18:10.676Z,99.90
2019-04-10T12:20:39.508Z,99.90
2019-04-10T12:23:08.449Z,99.90
2019-04-10T12:25:37.143Z,99.90
2019-04-10T12:28:05.829Z,99.90
2019-04-10T12:30:35.293Z,99.90
2019-04-10T12:33:03.978Z,99.90
2019-04-10T12:35:34.189Z,99.90
2019-04-10T12:38:07.020Z,99.90
2019-04-10T12:40:33.024Z,99.90
2019-04-10T12:43:02.889Z,99.90
2019-04-10T12:45:32.555Z,99.90
2019-04-10T12:48:02.135Z,99.90
2019-04-10T12:50:31.257Z,99.90
2019-04-10T12:52:59.890Z,99.90
2019-04-10T12:55:28.461Z,99.90
2019-04-10T12:58:06.587Z,99.90
2019-04-10T13:00:27.790Z,99.90
2019-04-10T13:02:56.600Z,99.90
2019-04-10T13:05:25.219Z,99.90
2019-04-10T13:07:54.031Z,99.90
2019-04-10T13:10:23.195Z,99.90
2019-04-10T13:12:51.910Z,99.90
2019-04-10T13:15:21.362Z,99.90
2019-04-10T13:17:51.010Z,99.90
2019-04-10T13:20:19.864Z,99.90
2019-04-10T13:22:48.641Z,99.90
2019-04-10T13:25:18.400Z,99.90
2019-04-10T13:27:47.336Z,99.90
2019-04-10T13:30:16.605Z,99.90
2019-04-10T13:32:45.418Z,99.90
2019-04-10T13:35:14.389Z,99.90
2019-04-10T13:37:43.461Z,99.90
2019-04-10T13:40:13.140Z,99.90
2019-04-10T13:42:41.777Z,99.90
2019-04-10T13:45:11.064Z,99.90
2019-04-10T13:47:40.769Z,99.90
2019-04-10T13:50:10.664Z,99.90
2019-04-10T13:52:40.943Z,99.90
2019-04-10T13:55:11.597Z,99.90
2019-04-10T13:57:40.314Z,99.90
2019-04-10T14:00:11.376Z,99.90
2019-04-10T14:02:39.979Z,99.90
2019-04-10T14:05:11.653Z,99.90
2019-04-10T14:07:40.402Z,99.90
2019-04-10T14:10:10.514Z,99.90
2019-04-10T14:12:39.257Z,99.90
2019-04-10T14:15:08.251Z,99.90
2019-04-10T14:17:37.630Z,99.90
2019-04-10T14:20:06.929Z,99.90
2019-04-10T14:22:37.938Z,99.90
2019-04-10T14:25:09.600Z,99.90
2019-04-10T14:27:38.509Z,99.90
2019-04-10T14:30:11.337Z,99.90
2019-04-10T14:32:40.300Z,99.90
2019-04-10T14:35:09.910Z,99.90
2019-04-10T14:37:38.703Z,99.90
2019-04-10T14:40:09.219Z,99.90
2019-04-10T14:42:38.403Z,99.90
2019-04-10T14:45:07.633Z,99.90
2019-04-10T14:47:36.259Z,99.90
2019-04-10T14:50:05.904Z,99.90
2019-04-10T14:52:34.942Z,99.90
2019-04-10T14:55:04.111Z,99.90
2019-04-10T14:57:32.833Z,99.90
2019-04-10T15:00:01.442Z,99.90
2019-04-10T15:02:30.687Z,99.90
2019-04-10T15:04:59.586Z,99.90
2019-04-10T15:07:28.986Z,99.90
2019-04-10T15:09:57.642Z,99.90
2019-04-10T15:12:26.215Z,99.90
2019-04-10T15:14:54.827Z,99.90
2019-04-10T15:17:23.666Z,99.90
2019-04-10T15:19:53.618Z,99.90
2019-04-10T15:22:23.393Z,99.90
2019-04-10T15:24:52.166Z,99.90
2019-04-10T15:27:21.556Z,99.90
2019-04-10T15:29:50.231Z,99.90
2019-04-10T15:32:18.832Z,99.90
2019-04-10T15:34:48.357Z,99.90
2019-04-10T15:37:17.238Z,99.90
2019-04-10T15:39:46.398Z,99.90
2019-04-10T15:42:16.139Z,99.90
2019-04-10T15:45:05.768Z,99.90
2019-04-10T15:47:35.289Z,99.90
2019-04-10T15:50:07.086Z,99.90
2019-04-10T15:52:37.553Z,99.90
2019-04-10T15:55:07.887Z,99.90
2019-04-10T15:57:47.039Z,99.90
2019-04-10T16:00:08.655Z,99.90
2019-04-10T16:02:38.371Z,99.90
2019-04-10T16:05:09.104Z,99.90
2019-04-10T16:07:38.351Z,99.90
2019-04-10T16:10:13.068Z,99.90
2019-04-10T16:12:41.674Z,99.20
2019-04-10T16:15:11.184Z,99.90
2019-04-10T16:17:41.952Z,99.90
2019-04-10T16:20:15.577Z,99.90
2019-04-10T16:22:46.550Z,99.40
2019-04-10T16:25:22.787Z,99.80
2019-04-10T16:27:51.367Z,99.90
2019-04-10T16:30:22.087Z,99.90
2019-04-10T16:32:50.661Z,99.90
2019-04-10T16:35:19.235Z,99.50
2019-04-10T16:37:47.910Z,99.60
2019-04-10T16:40:16.422Z,99.90
2019-04-10T16:42:45.089Z,99.50
2019-04-10T16:45:14.131Z,99.60
2019-04-10T16:47:42.795Z,99.90
2019-04-10T16:50:11.877Z,99.50
2019-04-10T16:52:41.000Z,99.90
2019-04-10T16:55:10.408Z,99.90
2019-04-10T16:57:38.950Z,99.90
2019-04-10T17:00:09.634Z,99.90
2019-04-10T17:02:38.358Z,99.90
2019-04-10T17:05:08.753Z,99.10
2019-04-10T17:07:37.447Z,99.30
2019-04-10T17:10:16.034Z,99.10
2019-04-10T17:12:40.063Z,99.30
2019-04-10T17:15:10.148Z,99.40
2019-04-10T17:17:38.923Z,98.10
2019-04-10T17:20:08.563Z,99.30
2019-04-10T17:22:43.921Z,99.70
2019-04-10T17:25:07.861Z,99.90
2019-04-10T17:27:37.492Z,99.80
2019-04-10T17:30:09.951Z,99.70
2019-04-10T17:32:38.665Z,99.60
2019-04-10T17:35:09.516Z,99.90
2019-04-10T17:37:38.617Z,99.80
2019-04-10T17:40:09.201Z,99.90
2019-04-10T17:42:39.298Z,99.90
2019-04-10T17:45:08.290Z,99.90
2019-04-10T17:47:36.859Z,99.90
2019-04-10T17:50:07.802Z,99.90
2019-04-10T17:52:38.014Z,99.90
2019-04-10T17:55:09.384Z,99.90
2019-04-10T17:57:40.186Z,99.90
2019-04-10T18:00:31.359Z,99.90
2019-04-10T18:03:01.133Z,99.90
2019-04-10T18:05:30.770Z,99.90
2019-04-10T18:08:00.716Z,99.90
2019-04-10T18:10:42.006Z,99.90
2019-04-10T18:13:00.875Z,99.90
2019-04-10T18:15:30.315Z,99.90
2019-04-10T18:17:59.773Z,99.90
2019-04-10T18:20:28.502Z,99.90
2019-04-10T18:22:57.081Z,99.90
2019-04-10T18:25:25.742Z,99.90
2019-04-10T18:27:54.635Z,99.90
2019-04-10T18:30:23.792Z,99.90
2019-04-10T18:32:52.445Z,99.90
2019-04-10T18:35:21.181Z,99.90
2019-04-10T18:37:49.935Z,99.90
2019-04-10T18:40:19.113Z,99.90
2019-04-10T18:42:47.749Z,99.90
2019-04-10T18:45:17.524Z,99.90
2019-04-10T18:47:46.155Z,99.90
2019-04-10T18:50:16.036Z,99.90
2019-04-10T18:52:45.626Z,99.90
2019-04-10T18:55:14.602Z,99.90
2019-04-10T18:57:43.252Z,99.20
2019-04-10T19:00:19.722Z,99.40
2019-04-10T19:03:03.340Z,99.90
2019-04-10T19:05:36.942Z,99.90
2019-04-10T19:08:06.956Z,99.90
2019-04-10T19:10:36.616Z,99.90
2019-04-10T19:13:06.045Z,99.90
2019-04-10T19:15:35.072Z,99.90
2019-04-10T19:18:03.830Z,99.90
2019-04-10T19:20:33.059Z,99.90
2019-04-10T19:23:01.727Z,99.90
2019-04-10T19:25:30.332Z,99.90
2019-04-10T19:28:00.256Z,99.90
2019-04-10T19:30:39.666Z,99.90
2019-04-10T19:33:09.955Z,99.90
2019-04-10T19:35:39.272Z,99.90
2019-04-10T19:38:09.239Z,99.90
2019-04-10T19:40:38.726Z,99.90
2019-04-10T19:43:08.305Z,99.90
2019-04-10T19:45:39.832Z,99.90
2019-04-10T19:48:10.859Z,99.90
2019-04-10T19:50:39.581Z,99.90
2019-04-10T19:53:09.005Z,99.90
2019-04-10T19:55:37.980Z,99.90
2019-04-10T19:58:08.498Z,99.90
2019-04-10T20:00:37.244Z,99.90
2019-04-10T20:03:05.787Z,99.90
2019-04-10T20:05:34.444Z,99.90
2019-04-10T20:08:03.023Z,99.90
2019-04-10T20:10:33.147Z,99.90
2019-04-10T20:13:01.810Z,99.90
2019-04-10T20:15:34.241Z,99.90
2019-04-10T20:18:04.227Z,99.90
2019-04-10T20:20:33.162Z,99.90
2019-04-10T20:23:02.533Z,99.90
2019-04-10T20:25:32.489Z,99.90
2019-04-10T20:28:01.241Z,99.90
2019-04-10T20:30:33.021Z,99.90
2019-04-10T20:33:02.951Z,99.90
2019-04-10T20:35:32.021Z,99.90
2019-04-10T20:38:01.075Z,99.90
2019-04-10T20:40:29.933Z,99.90
2019-04-10T20:42:58.602Z,99.90
2019-04-10T20:45:27.756Z,99.90
2019-04-10T20:47:56.532Z,99.90
2019-04-10T20:50:25.988Z,99.90
2019-04-10T20:52:55.804Z,99.90
2019-04-10T20:55:25.746Z,99.90
2019-04-10T20:57:54.411Z,99.90
2019-04-10T21:00:27.528Z,99.90
2019-04-10T21:02:56.182Z,99.90
2019-04-10T21:05:24.813Z,99.90
2019-04-10T21:07:54.346Z,99.90
2019-04-10T21:10:23.480Z,99.90
2019-04-10T21:15:21.580Z,99.90
2019-04-10T21:17:50.801Z,99.90
2019-04-10T21:20:20.328Z,99.90
2019-04-10T21:22:49.319Z,99.90
2019-04-10T21:25:18.939Z,99.90
2019-04-10T21:27:50.445Z,99.90
2019-04-10T21:30:28.582Z,99.60
2019-04-10T21:33:07.981Z,98.30
2019-04-10T21:35:37.794Z,98.50
2019-04-10T21:38:06.845Z,97.40
2019-04-10T21:40:35.802Z,97.00
2019-04-10T21:43:05.917Z,97.00
2019-04-10T21:45:35.119Z,97.30
2019-04-10T21:48:04.195Z,97.10
2019-04-10T21:50:33.355Z,96.90
2019-04-10T21:53:01.965Z,97.10
2019-04-10T21:55:31.121Z,96.40
2019-04-10T21:57:59.821Z,97.10
2019-04-10T22:00:36.801Z,97.10
2019-04-10T22:05:36.630Z,97.30
2019-04-10T22:08:09.658Z,97.60
2019-04-10T22:10:43.937Z,97.60
2019-04-10T22:13:13.524Z,97.80
2019-04-10T22:15:44.918Z,97.50
2019-04-10T22:18:14.773Z,97.50
2019-04-10T22:20:43.749Z,97.50
2019-04-10T22:25:40.997Z,97.60
2019-04-10T22:28:09.570Z,97.40
2019-04-10T22:30:38.244Z,97.90
2019-04-10T22:38:04.636Z,97.40
2019-04-10T22:40:33.387Z,97.60
2019-04-10T22:43:01.992Z,96.90
2019-04-10T22:45:32.786Z,97.30
2019-04-10T22:48:01.517Z,97.50
2019-04-10T22:50:31.018Z,97.10
2019-04-10T22:53:00.969Z,96.90
2019-04-10T22:55:31.663Z,97.10
2019-04-10T22:58:00.418Z,97.00
2019-04-10T23:00:32.730Z,97.70
2019-04-10T23:03:02.924Z,97.30
2019-04-10T23:05:32.322Z,97.10
2019-04-10T23:08:01.222Z,97.10
2019-04-10T23:13:04.071Z,97.40
2019-04-10T23:20:26.051Z,97.00
2019-04-10T23:22:54.865Z,96.70
2019-04-10T23:25:24.701Z,96.90
2019-04-10T23:27:55.189Z,96.90
2019-04-10T23:30:24.637Z,96.90
2019-04-10T23:32:53.523Z,96.70
2019-04-10T23:35:22.278Z,97.10
2019-04-10T23:42:48.352Z,96.80
2019-04-10T23:45:17.637Z,97.00
2019-04-10T23:47:46.497Z,97.00
2019-04-10T23:50:15.585Z,97.00
2019-04-10T23:55:13.601Z,97.00
2019-04-10T23:57:43.334Z,97.30
